createdAt,value
2019-04-21T00:01:14.721Z,11.60
2019-04-21T00:03:50.186Z,11.60
2019-04-21T00:06:35.340Z,11.50
2019-04-21T00:09:09.372Z,11.50
2019-04-21T00:11:29.910Z,11.40
2019-04-21T00:13:52.591Z,11.40
2019-04-21T00:16:12.624Z,11.40
2019-04-21T00:18:50.627Z,11.30
2019-04-21T00:21:22.514Z,11.20
2019-04-21T00:23:59.072Z,11.10
2019-04-21T00:26:23.837Z,11.10
2019-04-21T00:29:02.019Z,11.10
2019-04-21T00:31:23.034Z,11.10
2019-04-21T00:33:37.040Z,11.10
2019-04-21T00:36:09.529Z,11.10
2019-04-21T00:39:03.138Z,11.10
2019-04-21T00:41:19.329Z,11.10
2019-04-21T00:43:42.620Z,11.10
2019-04-21T00:46:04.745Z,11.10
2019-04-21T00:48:41.166Z,11.10
2019-04-21T00:51:27.618Z,11.10
2019-04-21T00:53:51.589Z,11.00
2019-04-21T00:56:18.156Z,10.90
2019-04-21T00:58:40.613Z,10.90
2019-04-21T01:01:12.261Z,10.90
2019-04-21T01:03:41.727Z,10.90
2019-04-21T01:06:03.683Z,10.80
2019-04-21T01:08:35.723Z,10.80
2019-04-21T01:10:53.173Z,10.70
2019-04-21T01:13:39.461Z,10.70
2019-04-21T01:16:00.816Z,10.70
2019-04-21T01:18:29.519Z,10.60
2019-04-21T01:20:34.663Z,10.60
2019-04-21T01:23:02.189Z,10.60
2019-04-21T01:25:37.174Z,10.50
2019-04-21T01:28:16.728Z,10.50
2019-04-21T01:30:45.143Z,10.40
2019-04-21T01:33:17.353Z,10.40
2019-04-21T01:35:44.062Z,10.50
2019-04-21T01:38:14.252Z,10.50
2019-04-21T01:40:43.291Z,10.40
2019-04-21T01:43:14.844Z,10.40
2019-04-21T01:45:45.890Z,10.30
2019-04-21T01:48:13.414Z,10.30
2019-04-21T01:50:40.939Z,10.20
2019-04-21T01:53:18.775Z,10.30
2019-04-21T01:55:48.548Z,10.30
2019-04-21T01:58:11.736Z,10.30
2019-04-21T02:00:45.599Z,10.30
2019-04-21T02:03:34.513Z,10.30
2019-04-21T02:05:54.903Z,10.40
2019-04-21T02:08:11.020Z,10.40
2019-04-21T02:10:46.226Z,10.30
2019-04-21T02:13:09.097Z,10.30
2019-04-21T02:15:42.071Z,10.20
2019-04-21T02:18:08.957Z,10.20
2019-04-21T02:20:26.937Z,10.10
2019-04-21T02:23:31.460Z,10.10
2019-04-21T02:25:32.144Z,10.10
2019-04-21T02:28:03.305Z,10.10
2019-04-21T02:31:05.965Z,10.10
2019-04-21T02:33:16.953Z,10.00
2019-04-21T02:40:38.502Z,9.90
2019-04-21T02:43:11.335Z,9.90
2019-04-21T02:50:33.530Z,9.80
2019-04-21T02:53:06.391Z,9.80
2019-04-21T02:58:13.175Z,9.70
2019-04-21T03:03:03.918Z,9.70
2019-04-21T03:05:47.119Z,9.60
2019-04-21T03:08:03.816Z,9.60
2019-04-21T03:10:43.415Z,9.60
2019-04-21T03:13:03.628Z,9.60
2019-04-21T03:18:04.852Z,9.60
2019-04-21T03:20:35.337Z,9.50
2019-04-21T03:23:00.066Z,9.50
2019-04-21T03:30:45.031Z,9.50
2019-04-21T03:37:42.482Z,9.60
2019-04-21T03:40:15.409Z,9.60
2019-04-21T03:42:52.958Z,9.60
2019-04-21T03:45:12.714Z,9.60
2019-04-21T03:47:34.538Z,9.60
2019-04-21T03:52:45.565Z,9.50
2019-04-21T04:00:35.228Z,9.50
2019-04-21T04:02:54.624Z,9.40
2019-04-21T04:05:45.321Z,9.40
2019-04-21T04:08:31.529Z,9.40
2019-04-21T04:10:38.784Z,9.40
2019-04-21T04:12:54.692Z,9.40
2019-04-21T04:15:28.974Z,9.30
2019-04-21T04:17:41.170Z,9.30
2019-04-21T04:20:11.746Z,9.30
2019-04-21T04:25:15.456Z,9.30
2019-04-21T04:27:53.817Z,9.30
2019-04-21T04:30:19.369Z,9.30
2019-04-21T04:37:32.216Z,9.30
2019-04-21T04:42:39.323Z,9.40
2019-04-21T04:50:10.271Z,9.40
2019-04-21T04:52:32.576Z,9.40
2019-04-21T04:55:00.712Z,9.30
2019-04-21T05:00:01.681Z,9.30
2019-04-21T05:02:29.839Z,9.30
2019-04-21T05:09:50.149Z,9.40
2019-04-21T05:12:10.153Z,9.40
2019-04-21T05:14:48.271Z,9.40
2019-04-21T05:17:14.240Z,9.40
2019-04-21T05:19:51.867Z,9.40
2019-04-21T05:22:05.258Z,9.40
2019-04-21T05:24:24.058Z,9.40
2019-04-21T05:26:47.906Z,9.50
2019-04-21T05:29:15.878Z,9.50
2019-04-21T05:31:57.101Z,9.50
2019-04-21T05:34:26.012Z,9.50
2019-04-21T05:36:57.826Z,9.60
2019-04-21T05:39:37.551Z,9.50
2019-04-21T05:41:57.957Z,9.60
2019-04-21T05:44:44.484Z,9.70
2019-04-21T05:47:15.847Z,9.70
2019-04-21T05:49:42.084Z,9.80
2019-04-21T05:52:04.099Z,9.80
2019-04-21T05:54:44.358Z,9.90
2019-04-21T05:57:05.406Z,10.00
2019-04-21T05:59:41.710Z,10.00
2019-04-21T06:02:13.598Z,10.10
2019-04-21T06:04:51.808Z,10.10
2019-04-21T06:07:09.713Z,10.30
2019-04-21T06:09:37.225Z,10.20
2019-04-21T06:12:03.758Z,10.30
2019-04-21T06:14:29.436Z,10.40
2019-04-21T06:19:33.001Z,10.60
2019-04-21T06:21:55.729Z,10.70
2019-04-21T06:24:21.561Z,10.80
2019-04-21T06:27:00.343Z,10.90
2019-04-21T06:29:23.432Z,10.90
2019-04-21T06:32:12.706Z,11.00
2019-04-21T06:34:19.856Z,11.00
2019-04-21T06:39:28.305Z,11.10
2019-04-21T06:41:49.263Z,11.20
2019-04-21T06:44:16.735Z,11.30
2019-04-21T06:47:02.632Z,11.40
2019-04-21T06:49:19.009Z,11.40
2019-04-21T06:51:44.804Z,11.50
2019-04-21T06:54:30.627Z,11.70
2019-04-21T06:59:20.830Z,11.80
2019-04-21T07:01:42.247Z,11.90
2019-04-21T07:06:45.655Z,12.00
2019-04-21T07:11:25.315Z,12.20
2019-04-21T07:14:05.937Z,12.20
2019-04-21T07:16:37.160Z,12.30
2019-04-21T07:21:27.552Z,12.50
2019-04-21T07:24:00.555Z,12.60
2019-04-21T07:26:22.250Z,12.60
2019-04-21T07:28:59.763Z,12.60
2019-04-21T07:31:22.768Z,12.70
2019-04-21T07:36:21.640Z,12.90
2019-04-21T07:38:41.138Z,13.00
2019-04-21T07:41:08.250Z,13.10
2019-04-21T07:43:29.752Z,13.20
2019-04-21T07:45:58.160Z,13.20
2019-04-21T07:48:37.534Z,13.30
2019-04-21T07:51:09.567Z,13.40
2019-04-21T07:53:52.637Z,13.50
2019-04-21T07:55:53.709Z,13.50
2019-04-21T07:58:45.885Z,13.60
2019-04-21T08:01:16.679Z,13.70
2019-04-21T08:03:36.860Z,13.80
2019-04-21T08:06:02.365Z,13.80
2019-04-21T08:08:26.527Z,13.90
2019-04-21T08:10:57.080Z,14.00
2019-04-21T08:13:34.666Z,14.10
2019-04-21T08:15:58.255Z,14.20
2019-04-21T08:18:27.097Z,14.20
2019-04-21T08:20:54.443Z,14.30
2019-04-21T08:23:25.590Z,14.30
2019-04-21T08:26:00.633Z,14.40
2019-04-21T08:28:26.418Z,14.30
2019-04-21T08:30:52.280Z,14.30
2019-04-21T08:33:26.227Z,14.20
2019-04-21T08:38:13.563Z,14.70
2019-04-21T08:40:51.346Z,14.90
2019-04-21T08:43:10.927Z,15.00
2019-04-21T08:45:45.311Z,15.00
2019-04-21T08:48:10.574Z,15.10
2019-04-21T08:50:37.658Z,15.30
2019-04-21T08:53:07.086Z,15.40
2019-04-21T08:55:49.003Z,15.50
2019-04-21T08:58:36.993Z,15.60
2019-04-21T09:01:01.084Z,15.60
2019-04-21T09:03:33.428Z,15.70
2019-04-21T09:06:04.312Z,15.80
2019-04-21T09:08:36.308Z,15.80
2019-04-21T09:10:56.100Z,15.90
2019-04-21T09:13:25.132Z,16.00
2019-04-21T09:15:54.896Z,16.20
2019-04-21T09:18:41.909Z,16.30
2019-04-21T09:21:23.149Z,16.40
2019-04-21T09:23:40.554Z,16.50
2019-04-21T09:26:14.034Z,16.50
2019-04-21T09:28:34.911Z,16.60
2019-04-21T09:30:53.430Z,16.80
2019-04-21T09:33:16.844Z,17.00
2019-04-21T09:35:50.145Z,17.10
2019-04-21T09:38:23.608Z,17.20
2019-04-21T09:40:45.432Z,17.30
2019-04-21T09:43:11.550Z,17.50
2019-04-21T09:45:37.456Z,17.70
2019-04-21T09:48:09.956Z,17.80
2019-04-21T09:50:34.992Z,17.70
2019-04-21T09:53:12.575Z,17.60
2019-04-21T09:55:39.133Z,17.60
2019-04-21T09:58:10.054Z,17.70
2019-04-21T10:00:29.967Z,17.70
2019-04-21T10:03:00.930Z,17.80
2019-04-21T10:05:22.754Z,17.90
2019-04-21T10:07:49.082Z,17.90
2019-04-21T10:10:17.130Z,18.00
2019-04-21T10:12:43.611Z,18.30
2019-04-21T10:15:10.741Z,18.80
2019-04-21T10:17:41.974Z,18.70
2019-04-21T10:20:11.816Z,18.60
2019-04-21T10:22:39.329Z,18.60
2019-04-21T10:25:10.454Z,18.60
2019-04-21T10:27:37.444Z,18.70
2019-04-21T10:30:09.945Z,18.70
2019-04-21T10:32:36.582Z,18.60
2019-04-21T10:35:07.453Z,18.40
2019-04-21T10:37:45.467Z,18.90
2019-04-21T10:40:07.530Z,19.10
2019-04-21T10:42:35.365Z,19.30
2019-04-21T10:45:03.486Z,19.40
2019-04-21T10:47:31.204Z,19.10
2019-04-21T10:49:58.344Z,19.00
2019-04-21T10:52:43.303Z,18.90
2019-04-21T10:55:28.977Z,19.10
2019-04-21T10:57:40.270Z,19.20
2019-04-21T11:00:09.131Z,19.10
2019-04-21T11:02:41.123Z,19.00
2019-04-21T11:05:08.966Z,19.10
2019-04-21T11:07:55.361Z,19.10
2019-04-21T11:10:12.074Z,19.20
2019-04-21T11:12:39.731Z,19.30
2019-04-21T11:15:07.376Z,19.40
2019-04-21T11:17:34.183Z,19.40
2019-04-21T11:20:01.552Z,19.60
2019-04-21T11:22:28.523Z,19.60
2019-04-21T11:24:55.140Z,19.90
2019-04-21T11:27:22.607Z,19.80
2019-04-21T11:29:49.454Z,19.70
2019-04-21T11:32:16.832Z,19.70
2019-04-21T11:34:43.446Z,19.70
2019-04-21T11:37:12.408Z,19.70
2019-04-21T11:39:49.410Z,19.60
2019-04-21T11:42:09.960Z,19.70
2019-04-21T11:44:37.358Z,19.70
2019-04-21T11:47:06.634Z,19.80
2019-04-21T11:49:33.068Z,20.00
2019-04-21T11:52:00.694Z,20.10
2019-04-21T11:54:27.166Z,20.00
2019-04-21T11:56:54.805Z,19.80
2019-04-21T11:59:21.793Z,19.80
2019-04-21T12:01:49.680Z,20.10
2019-04-21T12:04:16.245Z,20.20
2019-04-21T12:06:46.671Z,20.40
2019-04-21T12:09:11.813Z,20.60
2019-04-21T12:11:39.029Z,20.60
2019-04-21T12:14:05.954Z,20.40
2019-04-21T12:16:33.121Z,20.40
2019-04-21T12:19:00.935Z,20.50
2019-04-21T12:21:31.162Z,20.80
2019-04-21T12:23:56.621Z,20.50
2019-04-21T12:26:24.187Z,20.60
2019-04-21T12:28:51.962Z,20.80
2019-04-21T12:31:23.541Z,20.80
2019-04-21T12:33:51.993Z,20.80
2019-04-21T12:36:19.814Z,20.80
2019-04-21T12:38:50.959Z,20.80
2019-04-21T12:41:14.962Z,20.90
2019-04-21T12:43:42.454Z,21.00
2019-04-21T12:46:09.695Z,21.10
2019-04-21T12:48:36.096Z,21.10
2019-04-21T12:51:03.905Z,21.20
2019-04-21T12:53:31.794Z,21.30
2019-04-21T12:55:59.912Z,21.40
2019-04-21T12:58:26.465Z,21.40
2019-04-21T13:00:53.146Z,21.20
2019-04-21T13:03:23.104Z,21.30
2019-04-21T13:05:49.575Z,21.50
2019-04-21T13:08:15.961Z,21.60
2019-04-21T13:13:19.823Z,21.60
2019-04-21T13:15:47.328Z,21.60
2019-04-21T13:18:14.373Z,21.70
2019-04-21T13:20:42.169Z,21.80
2019-04-21T13:23:10.174Z,21.90
2019-04-21T13:25:38.079Z,22.00
2019-04-21T13:28:05.001Z,22.10
2019-04-21T13:30:32.594Z,21.90
2019-04-21T13:33:00.741Z,22.10
2019-04-21T13:35:28.956Z,22.20
2019-04-21T13:37:56.318Z,22.30
2019-04-21T13:40:53.027Z,22.40
2019-04-21T13:43:07.889Z,22.40
2019-04-21T13:45:34.281Z,22.50
2019-04-21T13:48:02.373Z,22.50
2019-04-21T13:50:29.099Z,22.70
2019-04-21T13:52:56.641Z,22.50
2019-04-21T13:55:25.392Z,22.60
2019-04-21T13:57:52.817Z,22.70
2019-04-21T14:00:21.294Z,22.80
2019-04-21T14:02:48.977Z,22.80
2019-04-21T14:05:15.953Z,22.80
2019-04-21T14:07:43.903Z,22.80
2019-04-21T14:10:12.333Z,22.50
2019-04-21T14:12:38.673Z,22.60
2019-04-21T14:15:06.434Z,22.80
2019-04-21T14:17:35.035Z,22.80
2019-04-21T14:20:03.506Z,23.00
2019-04-21T14:22:29.820Z,23.10
2019-04-21T14:24:56.327Z,23.10
2019-04-21T14:27:23.912Z,23.20
2019-04-21T14:29:51.385Z,23.20
2019-04-21T14:32:18.242Z,23.20
2019-04-21T14:34:47.163Z,23.30
2019-04-21T14:37:13.110Z,23.30
2019-04-21T14:39:51.758Z,23.30
2019-04-21T14:42:08.451Z,23.10
2019-04-21T14:44:34.931Z,23.10
2019-04-21T14:47:09.258Z,23.20
2019-04-21T14:49:41.558Z,23.20
2019-04-21T14:52:19.141Z,23.10
2019-04-21T14:54:54.448Z,23.10
2019-04-21T14:57:21.270Z,23.20
2019-04-21T14:59:48.969Z,23.30
2019-04-21T15:02:16.054Z,23.40
2019-04-21T15:04:43.850Z,23.40
2019-04-21T15:07:10.357Z,23.40
2019-04-21T15:09:37.675Z,23.40
2019-04-21T15:12:05.720Z,23.10
2019-04-21T15:14:33.737Z,22.90
2019-04-21T15:17:01.015Z,23.10
2019-04-21T15:19:28.655Z,23.20
2019-04-21T15:21:56.578Z,23.30
2019-04-21T15:24:24.327Z,23.20
2019-04-21T15:26:52.899Z,23.30
2019-04-21T15:29:18.871Z,23.20
2019-04-21T15:31:46.494Z,23.20
2019-04-21T15:34:13.208Z,23.20
2019-04-21T15:36:40.115Z,23.10
2019-04-21T15:39:07.803Z,23.10
2019-04-21T15:41:36.609Z,23.00
2019-04-21T15:44:04.748Z,23.00
2019-04-21T15:46:33.882Z,23.00
2019-04-21T15:49:00.559Z,22.70
2019-04-21T15:51:28.070Z,22.40
2019-04-21T15:53:57.570Z,22.40
2019-04-21T15:56:26.856Z,22.30
2019-04-21T15:59:14.610Z,22.40
2019-04-21T16:01:46.410Z,22.40
2019-04-21T16:04:14.623Z,22.40
2019-04-21T16:06:41.556Z,22.50
2019-04-21T16:09:14.189Z,22.30
2019-04-21T16:11:37.877Z,22.20
2019-04-21T16:14:05.781Z,22.10
2019-04-21T16:16:34.087Z,22.20
2019-04-21T16:19:00.601Z,22.30
2019-04-21T16:21:26.937Z,22.30
2019-04-21T16:23:54.149Z,22.40
2019-04-21T16:26:20.519Z,22.40
2019-04-21T16:28:46.953Z,22.30
2019-04-21T16:31:14.251Z,22.30
2019-04-21T16:33:43.150Z,22.30
2019-04-21T16:36:12.906Z,22.30
2019-04-21T16:38:39.633Z,22.20
2019-04-21T16:41:10.066Z,22.20
2019-04-21T16:43:35.417Z,22.20
2019-04-21T16:46:01.735Z,22.00
2019-04-21T16:48:28.171Z,22.00
2019-04-21T16:50:55.382Z,22.10
2019-04-21T16:53:26.360Z,22.00
2019-04-21T16:56:00.725Z,22.10
2019-04-21T16:58:41.032Z,22.10
2019-04-21T17:01:15.932Z,22.10
2019-04-21T17:03:40.599Z,22.10
2019-04-21T17:06:07.085Z,22.00
2019-04-21T17:08:33.877Z,21.90
2019-04-21T17:11:10.920Z,21.80
2019-04-21T17:13:29.647Z,21.80
2019-04-21T17:16:16.913Z,21.70
2019-04-21T17:18:40.615Z,21.80
2019-04-21T17:20:57.646Z,21.80
2019-04-21T17:23:21.744Z,21.80
2019-04-21T17:25:48.425Z,21.80
2019-04-21T17:28:15.480Z,21.80
2019-04-21T17:30:42.237Z,21.70
2019-04-21T17:33:11.210Z,21.70
2019-04-21T17:35:38.536Z,21.60
2019-04-21T17:38:05.905Z,21.60
2019-04-21T17:40:33.716Z,21.50
2019-04-21T17:43:05.490Z,21.50
2019-04-21T17:45:29.013Z,21.40
2019-04-21T17:48:02.371Z,21.30
2019-04-21T17:50:25.835Z,21.20
2019-04-21T17:53:00.906Z,21.10
2019-04-21T17:55:31.344Z,21.00
2019-04-21T17:58:12.191Z,20.90
2019-04-21T18:01:10.166Z,20.90
2019-04-21T18:03:40.405Z,20.80
2019-04-21T18:05:50.530Z,20.80
2019-04-21T18:08:27.830Z,20.80
2019-04-21T18:10:47.754Z,20.70
2019-04-21T18:13:08.790Z,20.60
2019-04-21T18:15:51.063Z,20.50
2019-04-21T18:17:58.820Z,20.50
2019-04-21T18:20:28.058Z,20.40
2019-04-21T18:22:57.247Z,20.40
2019-04-21T18:25:39.831Z,20.30
2019-04-21T18:27:56.413Z,20.30
2019-04-21T18:30:36.002Z,20.20
2019-04-21T18:33:05.848Z,20.20
2019-04-21T18:35:51.752Z,20.20
2019-04-21T18:38:26.068Z,20.10
2019-04-21T18:40:53.948Z,20.00
2019-04-21T18:43:56.736Z,19.90
2019-04-21T18:46:14.981Z,19.90
2019-04-21T18:48:31.549Z,19.70
2019-04-21T18:50:58.965Z,19.50
2019-04-21T18:53:44.780Z,19.50
2019-04-21T18:56:05.539Z,19.50
2019-04-21T18:58:28.675Z,19.30
2019-04-21T19:01:03.231Z,19.30
2019-04-21T19:03:28.179Z,19.20
2019-04-21T19:05:58.263Z,19.10
2019-04-21T19:08:44.748Z,19.00
2019-04-21T19:11:08.261Z,18.90
2019-04-21T19:13:47.842Z,18.80
2019-04-21T19:21:02.809Z,18.70
2019-04-21T19:23:41.029Z,18.70
2019-04-21T19:26:10.414Z,18.70
2019-04-21T19:28:36.175Z,18.50
2019-04-21T19:31:04.996Z,18.50
2019-04-21T19:33:18.772Z,18.30
2019-04-21T19:35:35.394Z,18.40
2019-04-21T19:38:07.055Z,18.30
2019-04-21T19:40:48.733Z,18.30
2019-04-21T19:43:09.462Z,18.20
2019-04-21T19:45:36.811Z,18.00
2019-04-21T19:48:14.998Z,17.90
2019-04-21T19:50:44.904Z,17.80
2019-04-21T19:53:03.072Z,17.90
2019-04-21T19:55:24.307Z,17.90
2019-04-21T19:57:50.774Z,17.80
2019-04-21T20:00:17.839Z,17.80
2019-04-21T20:02:45.715Z,17.80
2019-04-21T20:05:20.430Z,17.70
2019-04-21T20:08:02.947Z,17.60
2019-04-21T20:10:26.945Z,17.60
2019-04-21T20:12:56.651Z,17.60
2019-04-21T20:15:33.001Z,17.50
2019-04-21T20:17:50.190Z,17.40
2019-04-21T20:20:06.748Z,17.50
2019-04-21T20:22:38.397Z,17.40
2019-04-21T20:25:07.913Z,17.30
2019-04-21T20:27:38.862Z,17.20
2019-04-21T20:30:14.022Z,17.20
2019-04-21T20:32:45.368Z,17.20
2019-04-21T20:35:14.943Z,17.10
2019-04-21T20:37:40.687Z,17.10
2019-04-21T20:39:58.919Z,17.00
2019-04-21T20:42:27.901Z,16.90
2019-04-21T20:45:22.081Z,16.90
2019-04-21T20:47:25.620Z,16.90
2019-04-21T20:49:59.472Z,16.80
2019-04-21T20:52:35.556Z,16.80
2019-04-21T20:54:55.076Z,16.70
2019-04-21T20:57:25.640Z,16.70
2019-04-21T20:59:54.093Z,16.70
2019-04-21T21:02:26.439Z,16.70
2019-04-21T21:04:43.486Z,16.60
2019-04-21T21:07:34.607Z,16.50
2019-04-21T21:09:55.873Z,16.50
2019-04-21T21:14:43.270Z,16.40
2019-04-21T21:17:26.569Z,16.20
2019-04-21T21:19:49.011Z,16.20
2019-04-21T21:22:04.086Z,16.20
2019-04-21T21:24:41.838Z,16.20
2019-04-21T21:27:05.490Z,16.10
2019-04-21T21:29:35.439Z,16.10
2019-04-21T21:32:11.182Z,16.10
2019-04-21T21:34:34.507Z,16.10
2019-04-21T21:37:01.894Z,16.10
2019-04-21T21:39:36.327Z,16.10
2019-04-21T21:41:46.401Z,16.00
2019-04-21T21:44:14.431Z,16.00
2019-04-21T21:46:49.927Z,15.90
2019-04-21T21:49:24.746Z,15.90
2019-04-21T21:51:43.025Z,15.80
2019-04-21T21:54:03.064Z,15.80
2019-04-21T21:56:30.658Z,15.80
2019-04-21T21:58:57.184Z,15.80
2019-04-21T22:01:33.259Z,15.70
2019-04-21T22:04:01.689Z,15.70
2019-04-21T22:06:23.915Z,15.60
2019-04-21T22:08:50.312Z,15.60
2019-04-21T22:11:17.984Z,15.60
2019-04-21T22:13:54.363Z,15.60
2019-04-21T22:16:15.694Z,15.50
2019-04-21T22:19:04.700Z,15.50
2019-04-21T22:21:27.953Z,15.50
2019-04-21T22:23:49.030Z,15.50
2019-04-21T22:26:07.183Z,15.50
2019-04-21T22:28:33.891Z,15.50
2019-04-21T22:31:01.073Z,15.40
2019-04-21T22:33:31.243Z,15.40
2019-04-21T22:36:03.759Z,15.40
2019-04-21T22:38:38.117Z,15.30
2019-04-21T22:41:09.315Z,15.30
2019-04-21T22:43:28.483Z,15.20
2019-04-21T22:45:49.494Z,15.20
2019-04-21T22:48:20.985Z,15.20
2019-04-21T22:50:44.565Z,15.20
2019-04-21T22:53:15.480Z,15.20
2019-04-21T22:56:10.893Z,15.10
2019-04-21T22:58:34.042Z,15.10
2019-04-21T23:01:01.514Z,15.10
2019-04-21T23:03:27.018Z,15.00
2019-04-21T23:05:55.796Z,15.00
2019-04-21T23:08:26.451Z,15.00
2019-04-21T23:10:59.254Z,14.90
2019-04-21T23:13:23.151Z,14.80
2019-04-21T23:15:51.781Z,14.80
2019-04-21T23:18:31.916Z,14.70
2019-04-21T23:20:59.188Z,14.70
2019-04-21T23:23:35.813Z,14.80
2019-04-21T23:25:54.345Z,14.80
2019-04-21T23:28:22.191Z,14.80
2019-04-21T23:30:55.849Z,14.80
2019-04-21T23:33:07.019Z,14.80
2019-04-21T23:35:36.753Z,14.70
2019-04-21T23:38:04.738Z,14.70
2019-04-21T23:40:30.803Z,14.60
2019-04-21T23:43:00.046Z,14.60
2019-04-21T23:45:30.535Z,14.60
2019-04-21T23:48:08.101Z,14.60
2019-04-21T23:50:33.252Z,14.60
2019-04-21T23:52:49.804Z,14.60
2019-04-21T23:55:17.045Z,14.50
2019-04-21T23:57:48.047Z,14.50
